Time;durP1;ratioP1;P1;durP2;ratioP2;P2;SDS_P1;SDS_P2;PMS_P1;PMS_P2;Temp;Humidity;BMP_temperature;BMP_pressure;BME280_temperature;BME280_humidity;BME280_pressure;Samples;Min_cycle;Max_cycle;Signal;HPM_P1;HPM_P2
2021/12/16 00:01:50;;;;;;;;;;;24.60;49.80;;;;;;5081416;28;948;-40
2021/12/16 00:07:21;;;;;;;;;;;24.80;49.00;;;;;;5081566;28;868;-39
2021/12/16 00:09:56;;;;;;;;;;;24.90;48.90;;;;;;5080745;28;1019;-39
2021/12/16 00:29:58;;;;;;;;;;;24.90;48.90;;;;;;5080922;28;591;-39
2021/12/16 00:32:21;;;;;;;;;;;25.00;49.00;;;;;;5081171;28;1224;-39
2021/12/16 00:34:49;;;;;;;;;;;24.80;49.10;;;;;;5081323;28;963;-39
2021/12/16 00:37:16;;;;;;;;;;;24.90;49.30;;;;;;5080782;28;1783;-39
2021/12/16 00:39:44;;;;;;;;;;;24.80;49.30;;;;;;5081105;28;1026;-39
2021/12/16 00:42:21;;;;;;;;;;;24.80;49.30;;;;;;5080971;28;1907;-39
2021/12/16 00:47:46;;;;;;;;;;;24.80;49.40;;;;;;5080117;28;1011;-39
2021/12/16 00:54:06;;;;;;;;;;;24.70;49.40;;;;;;5080725;28;1011;-39
2021/12/16 00:55:56;;;;;;;;;;;24.60;49.60;;;;;;5080436;28;605;-39
2021/12/16 00:58:27;;;;;;;;;;;24.60;49.70;;;;;;5080404;28;974;-40
2021/12/16 01:01:02;;;;;;;;;;;24.60;49.60;;;;;;5080417;28;939;-39
2021/12/16 01:03:35;;;;;;;;;;;24.60;49.60;;;;;;5080616;28;1878;-39
2021/12/16 01:06:31;;;;;;;;;;;24.60;49.60;;;;;;5080281;28;923;-39
2021/12/16 01:34:07;;;;;;;;;;;23.90;51.20;;;;;;5079408;28;674;-39
2021/12/16 01:37:06;;;;;;;;;;;23.90;51.50;;;;;;5080535;28;1007;-39
2021/12/16 01:40:01;;;;;;;;;;;23.90;51.30;;;;;;5079610;28;1022;-39
2021/12/16 01:51:20;;;;;;;;;;;23.70;51.70;;;;;;5079176;28;1874;-39
2021/12/16 01:54:17;;;;;;;;;;;23.60;51.70;;;;;;5079111;28;941;-39
2021/12/16 01:56:48;;;;;;;;;;;23.60;51.80;;;;;;5079467;28;1318;-39
2021/12/16 01:59:19;;;;;;;;;;;23.60;51.80;;;;;;5079344;28;1018;-39
2021/12/16 02:01:46;;;;;;;;;;;23.50;52.00;;;;;;5079068;28;1011;-39
2021/12/16 02:04:19;;;;;;;;;;;23.50;52.00;;;;;;5078996;28;1971;-39
2021/12/16 02:07:02;;;;;;;;;;;23.50;52.00;;;;;;5078673;28;980;-39
2021/12/16 02:09:35;;;;;;;;;;;23.40;52.20;;;;;;5079202;28;911;-39
2021/12/16 02:12:10;;;;;;;;;;;23.50;52.30;;;;;;5078378;28;975;-39
2021/12/16 02:28:34;;;;;;;;;;;23.30;52.80;;;;;;5078324;28;881;-39
2021/12/16 02:36:36;;;;;;;;;;;23.30;52.80;;;;;;5078948;28;1303;-39
2021/12/16 02:39:09;;;;;;;;;;;23.30;52.70;;;;;;5079156;28;991;-39
2021/12/16 02:41:39;;;;;;;;;;;23.30;52.80;;;;;;5078796;28;983;-39
2021/12/16 02:44:24;;;;;;;;;;;23.40;52.70;;;;;;5078865;28;1975;-39
2021/12/16 02:49:40;;;;;;;;;;;23.40;52.80;;;;;;5078740;28;699;-39
2021/12/16 02:52:09;;;;;;;;;;;23.30;52.90;;;;;;5078736;28;889;-39
2021/12/16 02:54:35;;;;;;;;;;;23.40;52.90;;;;;;5078995;28;959;-39
2021/12/16 02:57:03;;;;;;;;;;;23.30;52.90;;;;;;5078500;28;1020;-40
2021/12/16 02:59:30;;;;;;;;;;;23.30;52.90;;;;;;5078941;28;1024;-39
2021/12/16 03:02:01;;;;;;;;;;;23.40;53.00;;;;;;5078971;28;1003;-39
2021/12/16 03:04:29;;;;;;;;;;;23.30;53.00;;;;;;5078141;28;1902;-39
2021/12/16 03:06:58;;;;;;;;;;;23.30;53.00;;;;;;5078730;28;1036;-39
2021/12/16 03:12:36;;;;;;;;;;;23.30;53.00;;;;;;5071428;28;1392;-39
2021/12/16 03:15:12;;;;;;;;;;;23.30;53.00;;;;;;5078752;28;995;-39
2021/12/16 03:17:47;;;;;;;;;;;23.30;53.00;;;;;;5078728;28;904;-39
2021/12/16 03:20:24;;;;;;;;;;;23.30;53.10;;;;;;5078943;28;995;-39
2021/12/16 03:23:02;;;;;;;;;;;23.30;53.10;;;;;;5079588;28;1984;-39
2021/12/16 03:25:44;;;;;;;;;;;23.30;53.00;;;;;;5078857;28;2349;-39
2021/12/16 03:28:31;;;;;;;;;;;23.30;53.10;;;;;;5078577;28;1113;-41
2021/12/16 03:39:45;;;;;;;;;;;23.30;53.10;;;;;;5075090;28;1374;-39
2021/12/16 03:42:15;;;;;;;;;;;23.20;53.10;;;;;;5082170;28;1001;-39
2021/12/16 03:44:57;;;;;;;;;;;23.20;53.10;;;;;;5081979;28;1902;-39
2021/12/16 03:47:28;;;;;;;;;;;23.20;53.20;;;;;;5081585;28;1026;-39
2021/12/16 03:49:55;;;;;;;;;;;23.10;53.10;;;;;;5082042;28;1019;-39
2021/12/16 03:52:23;;;;;;;;;;;23.20;53.00;;;;;;5081599;28;1026;-39
2021/12/16 03:54:51;;;;;;;;;;;23.10;53.00;;;;;;5081609;28;1095;-39
2021/12/16 03:57:21;;;;;;;;;;;23.10;53.00;;;;;;5081693;28;1035;-39
2021/12/16 03:59:52;;;;;;;;;;;23.10;53.10;;;;;;5081552;28;1104;-39
2021/12/16 04:02:21;;;;;;;;;;;23.10;53.10;;;;;;5081416;28;999;-39
2021/12/16 04:04:48;;;;;;;;;;;23.10;53.20;;;;;;5081505;28;1902;-39
2021/12/16 04:07:15;;;;;;;;;;;23.10;53.10;;;;;;5082077;28;1003;-39
2021/12/16 04:09:42;;;;;;;;;;;23.10;53.20;;;;;;5081968;28;1023;-39
2021/12/16 04:12:12;;;;;;;;;;;23.10;53.20;;;;;;5081663;28;999;-39
2021/12/16 04:14:44;;;;;;;;;;;23.10;53.10;;;;;;5081353;28;951;-39
2021/12/16 04:17:12;;;;;;;;;;;23.20;53.10;;;;;;5081444;28;934;-39
2021/12/16 04:19:39;;;;;;;;;;;23.20;53.00;;;;;;5083304;28;1010;-39
2021/12/16 04:22:09;;;;;;;;;;;23.20;52.90;;;;;;5083093;28;959;-39
2021/12/16 04:24:36;;;;;;;;;;;23.30;52.90;;;;;;5082757;28;1905;-39
2021/12/16 04:27:03;;;;;;;;;;;23.30;52.80;;;;;;5083606;28;1035;-38
2021/12/16 04:29:31;;;;;;;;;;;23.30;52.80;;;;;;5082799;28;1043;-39
2021/12/16 04:31:59;;;;;;;;;;;23.30;52.80;;;;;;5083230;28;920;-39
2021/12/16 04:34:26;;;;;;;;;;;23.30;52.80;;;;;;5083079;28;1072;-39
2021/12/16 04:36:55;;;;;;;;;;;23.30;52.90;;;;;;5081774;28;1227;-39
2021/12/16 04:39:23;;;;;;;;;;;23.30;52.80;;;;;;5081761;28;1034;-39
2021/12/16 04:41:53;;;;;;;;;;;23.30;52.80;;;;;;5081779;28;1006;-39
2021/12/16 04:44:20;;;;;;;;;;;23.30;52.80;;;;;;5081013;28;1902;-39
2021/12/16 04:46:50;;;;;;;;;;;23.30;52.90;;;;;;5080616;28;951;-40
2021/12/16 04:49:20;;;;;;;;;;;23.30;52.90;;;;;;5080119;28;990;-39
2021/12/16 04:51:49;;;;;;;;;;;23.30;52.90;;;;;;5079282;28;1031;-39
2021/12/16 04:54:17;;;;;;;;;;;23.30;52.90;;;;;;5080633;28;1053;-39
2021/12/16 04:56:48;;;;;;;;;;;23.30;53.00;;;;;;5080376;28;962;-39
2021/12/16 04:59:16;;;;;;;;;;;23.40;52.90;;;;;;5079670;28;931;-39
2021/12/16 05:01:45;;;;;;;;;;;23.30;52.90;;;;;;5079504;28;921;-39
2021/12/16 05:04:12;;;;;;;;;;;23.30;53.00;;;;;;5080017;28;1906;-39
2021/12/16 05:06:41;;;;;;;;;;;23.30;53.00;;;;;;5080485;28;1009;-40
2021/12/16 05:09:09;;;;;;;;;;;23.20;53.10;;;;;;5080619;28;1894;-39
2021/12/16 05:11:36;;;;;;;;;;;23.30;53.10;;;;;;5080004;28;1030;-40
2021/12/16 05:14:04;;;;;;;;;;;23.20;53.10;;;;;;5079824;28;935;-39
2021/12/16 05:16:30;;;;;;;;;;;23.20;53.10;;;;;;5079693;28;1038;-44
2021/12/16 05:18:57;;;;;;;;;;;23.20;53.20;;;;;;5079420;28;948;-39
2021/12/16 05:21:44;;;;;;;;;;;23.20;53.20;;;;;;5079024;28;975;-39
2021/12/16 05:24:25;;;;;;;;;;;23.10;53.20;;;;;;5079222;28;1894;-39
2021/12/16 05:26:54;;;;;;;;;;;23.20;53.20;;;;;;5078080;28;1953;-39
2021/12/16 05:29:21;;;;;;;;;;;23.10;53.20;;;;;;5078803;28;1027;-39
2021/12/16 05:31:48;;;;;;;;;;;23.10;53.20;;;;;;5078692;28;932;-39
2021/12/16 05:34:15;;;;;;;;;;;23.10;53.20;;;;;;5078697;28;1009;-39
2021/12/16 05:36:41;;;;;;;;;;;23.10;53.20;;;;;;5079010;28;1032;-39
2021/12/16 05:39:09;;;;;;;;;;;23.10;53.30;;;;;;5079143;28;955;-39
2021/12/16 05:41:38;;;;;;;;;;;23.10;53.40;;;;;;5078391;28;951;-39
2021/12/16 05:44:05;;;;;;;;;;;23.10;53.40;;;;;;5078150;28;1905;-47
2021/12/16 05:46:33;;;;;;;;;;;23.10;53.40;;;;;;5076450;28;935;-39
2021/12/16 05:49:06;;;;;;;;;;;23.10;53.40;;;;;;5078082;28;1061;-39
2021/12/16 05:51:34;;;;;;;;;;;23.10;53.20;;;;;;5077577;28;876;-39
2021/12/16 05:54:02;;;;;;;;;;;23.10;53.40;;;;;;5078375;28;939;-41
2021/12/16 05:56:29;;;;;;;;;;;23.10;53.30;;;;;;5077257;28;956;-39
2021/12/16 05:58:57;;;;;;;;;;;23.10;53.40;;;;;;5077329;28;1033;-39
2021/12/16 06:01:36;;;;;;;;;;;23.10;53.40;;;;;;5076781;28;1008;-39
2021/12/16 06:04:03;;;;;;;;;;;23.00;53.40;;;;;;5077440;28;1985;-39
2021/12/16 06:06:30;;;;;;;;;;;23.10;53.40;;;;;;5076838;28;927;-39
2021/12/16 06:08:59;;;;;;;;;;;23.00;53.30;;;;;;5078249;28;1669;-39
2021/12/16 06:11:29;;;;;;;;;;;23.00;53.40;;;;;;5076877;28;1706;-39
2021/12/16 06:14:05;;;;;;;;;;;23.00;53.50;;;;;;5076670;28;1026;-39
2021/12/16 06:27:35;;;;;;;;;;;23.00;53.30;;;;;;5074674;28;913;-39
2021/12/16 06:30:02;;;;;;;;;;;23.00;53.40;;;;;;5073884;28;994;-39
2021/12/16 06:32:31;;;;;;;;;;;23.00;53.40;;;;;;5072283;28;1003;-39
2021/12/16 06:34:58;;;;;;;;;;;23.00;53.40;;;;;;5076487;28;971;-39
2021/12/16 06:37:25;;;;;;;;;;;23.00;53.50;;;;;;5075763;28;1063;-39
2021/12/16 06:39:52;;;;;;;;;;;23.00;53.50;;;;;;5076378;28;923;-39
2021/12/16 06:42:23;;;;;;;;;;;23.00;53.30;;;;;;5074956;28;1611;-39
2021/12/16 06:44:54;;;;;;;;;;;23.00;53.40;;;;;;5075913;28;1907;-39
2021/12/16 06:47:26;;;;;;;;;;;22.90;53.40;;;;;;5076280;28;1027;-40
2021/12/16 06:49:55;;;;;;;;;;;23.00;53.50;;;;;;5076286;28;1003;-39
2021/12/16 06:52:28;;;;;;;;;;;23.00;53.60;;;;;;5076549;28;962;-39
2021/12/16 06:55:05;;;;;;;;;;;23.00;53.50;;;;;;5076286;28;1002;-39
2021/12/16 06:57:42;;;;;;;;;;;23.00;53.50;;;;;;5077248;28;930;-39
2021/12/16 07:00:14;;;;;;;;;;;22.90;53.40;;;;;;5077157;28;999;-39
2021/12/16 07:02:50;;;;;;;;;;;23.00;53.50;;;;;;5076762;28;1148;-39
2021/12/16 07:05:19;;;;;;;;;;;23.00;53.40;;;;;;5077048;28;1983;-39
2021/12/16 07:07:46;;;;;;;;;;;23.00;53.30;;;;;;5076618;28;982;-39
2021/12/16 07:10:15;;;;;;;;;;;23.00;53.30;;;;;;5075523;28;1018;-39
2021/12/16 07:12:47;;;;;;;;;;;23.00;53.40;;;;;;5076492;28;812;-39
2021/12/16 07:15:15;;;;;;;;;;;23.00;53.30;;;;;;5079464;28;959;-39
2021/12/16 07:17:42;;;;;;;;;;;23.00;53.30;;;;;;5080316;28;1013;-39
2021/12/16 07:20:11;;;;;;;;;;;23.00;53.20;;;;;;5079557;28;1075;-39
2021/12/16 07:22:40;;;;;;;;;;;23.00;53.20;;;;;;5080010;28;1005;-39
2021/12/16 07:25:08;;;;;;;;;;;23.00;53.10;;;;;;5080011;28;1981;-39
2021/12/16 07:27:36;;;;;;;;;;;23.00;53.20;;;;;;5079459;28;995;-39
2021/12/16 07:30:03;;;;;;;;;;;23.00;53.30;;;;;;5079764;28;1050;-39
2021/12/16 07:32:30;;;;;;;;;;;23.00;53.30;;;;;;5079785;28;926;-39
2021/12/16 07:34:57;;;;;;;;;;;23.00;53.30;;;;;;5080638;28;947;-39
2021/12/16 07:37:24;;;;;;;;;;;23.00;53.20;;;;;;5078939;28;1130;-38
2021/12/16 07:39:53;;;;;;;;;;;22.90;53.30;;;;;;5079795;28;916;-39
2021/12/16 07:42:28;;;;;;;;;;;22.90;53.40;;;;;;5078890;28;975;-39
2021/12/16 07:44:54;;;;;;;;;;;22.90;53.40;;;;;;5079060;28;1906;-38
2021/12/16 07:47:21;;;;;;;;;;;22.90;53.40;;;;;;5079496;28;1020;-39
2021/12/16 07:49:48;;;;;;;;;;;22.80;53.40;;;;;;5079395;28;1320;-40
2021/12/16 07:52:16;;;;;;;;;;;22.90;53.60;;;;;;5080265;28;948;-39
2021/12/16 07:54:43;;;;;;;;;;;22.90;53.50;;;;;;5080248;28;988;-39
2021/12/16 07:57:12;;;;;;;;;;;22.90;53.50;;;;;;5078807;28;1027;-39
2021/12/16 07:59:42;;;;;;;;;;;22.90;53.30;;;;;;5079455;28;1015;-39
2021/12/16 08:02:11;;;;;;;;;;;22.90;53.40;;;;;;5079499;28;967;-39
2021/12/16 08:04:41;;;;;;;;;;;22.90;53.40;;;;;;5079858;28;1906;-39
2021/12/16 08:07:09;;;;;;;;;;;22.90;53.50;;;;;;5079756;28;2568;-39
2021/12/16 08:09:38;;;;;;;;;;;22.80;53.40;;;;;;5078654;28;954;-39
2021/12/16 08:12:05;;;;;;;;;;;22.90;53.40;;;;;;5079534;28;939;-39
2021/12/16 08:14:33;;;;;;;;;;;22.90;53.40;;;;;;5079700;28;1137;-39
2021/12/16 08:17:00;;;;;;;;;;;22.90;53.30;;;;;;5078938;28;1017;-39
2021/12/16 08:19:27;;;;;;;;;;;22.90;53.40;;;;;;5078538;28;1038;-39
2021/12/16 08:21:53;;;;;;;;;;;22.90;53.30;;;;;;5079303;28;1043;-39
2021/12/16 08:24:21;;;;;;;;;;;22.90;53.30;;;;;;5079290;28;1991;-38
2021/12/16 08:26:49;;;;;;;;;;;22.90;53.20;;;;;;5079108;28;988;-39
2021/12/16 08:29:17;;;;;;;;;;;22.90;53.30;;;;;;5079850;28;999;-39
2021/12/16 08:31:45;;;;;;;;;;;22.90;53.30;;;;;;5079263;28;872;-39
2021/12/16 08:34:13;;;;;;;;;;;22.90;53.20;;;;;;5078828;28;1019;-39
2021/12/16 08:36:40;;;;;;;;;;;22.90;53.30;;;;;;5078115;28;1189;-39
2021/12/16 08:39:08;;;;;;;;;;;22.90;53.00;;;;;;5079413;28;1009;-39
2021/12/16 08:41:37;;;;;;;;;;;22.90;53.20;;;;;;5078700;28;1007;-39
2021/12/16 08:44:05;;;;;;;;;;;22.90;53.20;;;;;;5078284;28;935;-39
2021/12/16 08:46:33;;;;;;;;;;;22.90;53.20;;;;;;5078522;28;1905;-39
2021/12/16 08:49:01;;;;;;;;;;;22.90;53.20;;;;;;5079200;28;944;-39
2021/12/16 08:51:29;;;;;;;;;;;22.90;53.20;;;;;;5078704;28;879;-39
2021/12/16 08:53:57;;;;;;;;;;;22.90;53.20;;;;;;5077534;28;911;-39
2021/12/16 08:56:26;;;;;;;;;;;22.90;53.40;;;;;;5077848;28;994;-39
2021/12/16 08:58:52;;;;;;;;;;;22.90;53.20;;;;;;5078226;28;1041;-39
2021/12/16 09:01:21;;;;;;;;;;;22.90;53.30;;;;;;5078509;28;987;-39
2021/12/16 09:03:48;;;;;;;;;;;22.80;53.30;;;;;;5077950;28;943;-39
2021/12/16 09:06:16;;;;;;;;;;;22.80;53.30;;;;;;5078617;28;1996;-39
2021/12/16 09:08:43;;;;;;;;;;;22.90;53.40;;;;;;5078551;28;976;-39
2021/12/16 09:11:12;;;;;;;;;;;22.90;53.40;;;;;;5078234;28;946;-39
2021/12/16 09:13:39;;;;;;;;;;;22.90;53.30;;;;;;5078631;28;1558;-39
2021/12/16 09:16:09;;;;;;;;;;;22.80;53.30;;;;;;5078777;28;994;-39
2021/12/16 09:18:39;;;;;;;;;;;22.80;53.30;;;;;;5078598;28;979;-39
2021/12/16 09:21:06;;;;;;;;;;;22.80;53.30;;;;;;5078272;28;1011;-39
2021/12/16 09:23:34;;;;;;;;;;;22.80;53.30;;;;;;5078962;28;977;-39
2021/12/16 09:26:01;;;;;;;;;;;22.90;53.30;;;;;;5077051;28;1906;-39
2021/12/16 09:28:28;;;;;;;;;;;22.80;53.30;;;;;;5077397;28;975;-39
2021/12/16 09:30:55;;;;;;;;;;;22.80;53.30;;;;;;5076942;28;1249;-39
2021/12/16 09:33:24;;;;;;;;;;;22.90;53.40;;;;;;5078149;28;965;-39
2021/12/16 09:35:55;;;;;;;;;;;22.90;53.30;;;;;;5077684;28;1132;-39
2021/12/16 09:38:22;;;;;;;;;;;22.80;53.30;;;;;;5077074;28;1030;-39
2021/12/16 09:40:54;;;;;;;;;;;22.90;53.30;;;;;;5077333;28;999;-39
2021/12/16 09:43:22;;;;;;;;;;;22.90;53.20;;;;;;5077168;28;919;-38
2021/12/16 09:45:49;;;;;;;;;;;22.90;53.20;;;;;;5077207;28;1981;-39
2021/12/16 09:48:16;;;;;;;;;;;22.80;53.20;;;;;;5076953;28;1034;-40
2021/12/16 09:50:42;;;;;;;;;;;22.80;53.30;;;;;;5076867;28;1034;-39
2021/12/16 09:53:10;;;;;;;;;;;22.80;53.20;;;;;;5077681;28;959;-39
2021/12/16 09:55:38;;;;;;;;;;;22.80;53.20;;;;;;5077725;28;975;-39
2021/12/16 09:58:07;;;;;;;;;;;22.80;53.20;;;;;;5076199;28;1010;-39
2021/12/16 10:00:34;;;;;;;;;;;22.80;53.30;;;;;;5077089;28;981;-39
2021/12/16 10:03:02;;;;;;;;;;;22.80;53.30;;;;;;5075505;28;986;-39
2021/12/16 10:05:36;;;;;;;;;;;22.80;53.40;;;;;;5076505;28;1894;-39
2021/12/16 10:08:05;;;;;;;;;;;22.80;53.30;;;;;;5076310;28;1045;-39
2021/12/16 10:10:32;;;;;;;;;;;22.80;53.30;;;;;;5075901;28;971;-39
2021/12/16 10:13:01;;;;;;;;;;;22.80;53.40;;;;;;5076072;28;1028;-40
2021/12/16 10:18:17;;;;;;;;;;;22.80;53.30;;;;;;5074534;28;603;-39
2021/12/16 10:20:51;;;;;;;;;;;22.80;53.40;;;;;;5075126;28;885;-39
2021/12/16 10:23:19;;;;;;;;;;;22.70;53.40;;;;;;5077038;28;1159;-39
2021/12/16 10:25:47;;;;;;;;;;;22.80;53.40;;;;;;5075407;28;1899;-39
2021/12/16 10:28:16;;;;;;;;;;;22.80;53.30;;;;;;5075505;28;975;-39
2021/12/16 10:30:50;;;;;;;;;;;22.80;53.50;;;;;;5076946;28;977;-39
2021/12/16 10:33:21;;;;;;;;;;;22.80;53.30;;;;;;5075408;28;996;-39
2021/12/16 10:35:48;;;;;;;;;;;22.80;53.20;;;;;;5074981;28;1276;-39
2021/12/16 10:38:17;;;;;;;;;;;22.90;53.20;;;;;;5075613;28;1007;-39
2021/12/16 10:40:45;;;;;;;;;;;22.90;53.10;;;;;;5077238;28;1005;-39
2021/12/16 10:43:12;;;;;;;;;;;23.10;53.00;;;;;;5076585;28;1034;-39
2021/12/16 10:45:43;;;;;;;;;;;23.00;52.90;;;;;;5076199;28;1910;-39
2021/12/16 10:48:22;;;;;;;;;;;23.00;53.10;;;;;;5074573;28;1006;-39
2021/12/16 10:50:54;;;;;;;;;;;23.00;53.20;;;;;;5075798;28;987;-39
2021/12/16 10:53:39;;;;;;;;;;;23.00;53.20;;;;;;5075945;28;1051;-39
2021/12/16 10:56:06;;;;;;;;;;;23.00;53.20;;;;;;5076515;28;1011;-39
2021/12/16 10:58:50;;;;;;;;;;;23.10;53.20;;;;;;5077733;28;999;-39
2021/12/16 11:01:30;;;;;;;;;;;23.00;53.10;;;;;;5075438;28;1159;-39
2021/12/16 11:03:59;;;;;;;;;;;23.10;53.00;;;;;;5075888;28;980;-39
2021/12/16 11:06:26;;;;;;;;;;;23.00;53.00;;;;;;5075882;28;1908;-40
2021/12/16 11:08:53;;;;;;;;;;;23.10;53.30;;;;;;5077231;28;999;-39
2021/12/16 11:11:26;;;;;;;;;;;23.10;53.50;;;;;;5075621;28;919;-39
2021/12/16 11:14:02;;;;;;;;;;;23.20;53.20;;;;;;5075110;28;939;-39
2021/12/16 11:16:32;;;;;;;;;;;23.20;53.00;;;;;;5076113;28;1003;-39
2021/12/16 11:19:01;;;;;;;;;;;23.30;53.10;;;;;;5074676;28;988;-39
2021/12/16 11:21:32;;;;;;;;;;;23.30;52.90;;;;;;5075263;28;934;-39
2021/12/16 11:23:59;;;;;;;;;;;23.40;52.70;;;;;;5074115;28;988;-39
2021/12/16 11:26:29;;;;;;;;;;;23.40;52.70;;;;;;5075832;28;1906;-39
2021/12/16 11:28:56;;;;;;;;;;;23.50;52.50;;;;;;5075754;28;958;-39
2021/12/16 11:31:25;;;;;;;;;;;23.60;52.50;;;;;;5074738;28;873;-39
2021/12/16 11:33:52;;;;;;;;;;;23.70;52.20;;;;;;5076057;28;1017;-40
2021/12/16 11:36:21;;;;;;;;;;;23.90;53.30;;;;;;5074534;28;1212;-40
2021/12/16 11:38:50;;;;;;;;;;;24.00;52.70;;;;;;5074931;28;1021;-41
2021/12/16 11:41:23;;;;;;;;;;;23.90;51.80;;;;;;5074608;28;962;-39
2021/12/16 11:43:52;;;;;;;;;;;24.00;52.00;;;;;;5073865;28;1026;-41
2021/12/16 11:46:22;;;;;;;;;;;23.90;51.30;;;;;;5073662;28;1977;-41
2021/12/16 11:48:50;;;;;;;;;;;23.90;51.70;;;;;;5073461;28;970;-40
2021/12/16 11:51:18;;;;;;;;;;;23.80;51.50;;;;;;5072645;28;927;-41
2021/12/16 11:53:49;;;;;;;;;;;23.80;51.80;;;;;;5073941;28;943;-41
2021/12/16 11:56:18;;;;;;;;;;;23.70;52.00;;;;;;5073812;28;950;-41
2021/12/16 11:58:48;;;;;;;;;;;23.70;52.10;;;;;;5072002;28;1009;-40
2021/12/16 12:01:20;;;;;;;;;;;23.60;52.10;;;;;;5074369;28;996;-40
2021/12/16 12:03:47;;;;;;;;;;;23.60;52.10;;;;;;5074151;28;1066;-40
2021/12/16 12:06:22;;;;;;;;;;;23.60;52.10;;;;;;5075750;28;1993;-41
2021/12/16 12:08:51;;;;;;;;;;;23.60;52.10;;;;;;5075941;28;972;-41
2021/12/16 12:11:19;;;;;;;;;;;23.60;52.40;;;;;;5077872;28;1147;-40
2021/12/16 12:13:48;;;;;;;;;;;23.70;52.50;;;;;;5076870;28;987;-40
2021/12/16 12:16:16;;;;;;;;;;;23.60;52.30;;;;;;5077200;28;1034;-38
2021/12/16 12:18:44;;;;;;;;;;;23.60;52.90;;;;;;5076755;28;975;-40
2021/12/16 12:21:15;;;;;;;;;;;23.50;52.40;;;;;;5077721;28;991;-40
2021/12/16 12:23:42;;;;;;;;;;;23.50;52.50;;;;;;5077898;28;1005;-40
2021/12/16 12:26:16;;;;;;;;;;;23.40;52.30;;;;;;5078099;28;1902;-40
2021/12/16 12:28:43;;;;;;;;;;;23.40;52.50;;;;;;5077957;28;936;-40
2021/12/16 12:31:10;;;;;;;;;;;23.50;52.30;;;;;;5077386;28;977;-40
2021/12/16 12:33:37;;;;;;;;;;;23.50;52.40;;;;;;5077499;28;1762;-40
2021/12/16 12:36:04;;;;;;;;;;;23.50;52.40;;;;;;5076625;28;1158;-40
2021/12/16 12:38:32;;;;;;;;;;;23.60;52.40;;;;;;5076518;28;1003;-41
2021/12/16 12:40:59;;;;;;;;;;;23.40;52.50;;;;;;5077290;28;1018;-40
2021/12/16 12:43:27;;;;;;;;;;;23.40;52.60;;;;;;5076212;28;983;-40
2021/12/16 12:45:54;;;;;;;;;;;23.40;52.50;;;;;;5077681;28;1961;-41
2021/12/16 12:48:21;;;;;;;;;;;23.30;52.60;;;;;;5076162;28;1015;-40
2021/12/16 12:50:48;;;;;;;;;;;23.30;53.30;;;;;;5075937;28;948;-40
2021/12/16 12:53:17;;;;;;;;;;;23.30;52.90;;;;;;5075965;28;1006;-40
2021/12/16 12:55:44;;;;;;;;;;;23.30;52.90;;;;;;5076215;28;982;-40
2021/12/16 12:58:13;;;;;;;;;;;23.30;52.90;;;;;;5076905;28;1032;-40
2021/12/16 13:00:42;;;;;;;;;;;23.30;53.00;;;;;;5076086;28;978;-40
2021/12/16 13:03:10;;;;;;;;;;;23.20;53.10;;;;;;5075481;28;970;-40
2021/12/16 13:05:38;;;;;;;;;;;23.20;53.30;;;;;;5075968;28;1973;-40
2021/12/16 13:08:06;;;;;;;;;;;23.20;53.20;;;;;;5076743;28;988;-40
2021/12/16 13:10:34;;;;;;;;;;;23.20;53.20;;;;;;5077521;28;975;-40
2021/12/16 13:13:27;;;;;;;;;;;23.20;53.30;;;;;;5076526;28;923;-41
2021/12/16 13:16:13;;;;;;;;;;;23.20;53.30;;;;;;5077514;28;1035;-40
2021/12/16 13:27:06;;;;;;;;;;;23.10;53.50;;;;;;5096047;28;1902;-38
2021/12/16 13:29:38;;;;;;;;;;;23.10;53.60;;;;;;5097264;28;966;-39
2021/12/16 13:32:13;;;;;;;;;;;23.30;53.50;;;;;;5095716;28;904;-39
2021/12/16 13:34:49;;;;;;;;;;;23.30;53.30;;;;;;5094714;28;1105;-39
2021/12/16 13:37:23;;;;;;;;;;;23.40;53.10;;;;;;5095084;28;1028;-39
2021/12/16 13:39:53;;;;;;;;;;;23.50;52.60;;;;;;5094631;28;931;-39
2021/12/16 13:42:20;;;;;;;;;;;23.50;52.50;;;;;;5094465;28;976;-37
2021/12/16 13:44:53;;;;;;;;;;;23.50;52.40;;;;;;5094160;28;1022;-37
2021/12/16 13:47:32;;;;;;;;;;;23.60;52.10;;;;;;5093571;28;1989;-40
2021/12/16 13:58:38;;;;;;;;;;;24.00;51.10;;;;;;5094257;28;871;-37
2021/12/16 14:04:05;;;;;;;;;;;24.10;50.90;;;;;;5087325;28;1900;-37
2021/12/16 14:06:39;;;;;;;;;;;24.20;51.00;;;;;;5093049;28;1870;-37
2021/12/16 14:09:13;;;;;;;;;;;24.20;50.90;;;;;;5095381;28;1018;-36
2021/12/16 14:14:48;;;;;;;;;;;24.20;50.70;;;;;;5094329;28;1528;-36
2021/12/16 14:17:39;;;;;;;;;;;24.30;50.80;;;;;;5093943;28;1004;-37
2021/12/16 14:23:14;;;;;;;;;;;24.40;50.40;;;;;;5094125;28;900;-37
2021/12/16 14:26:05;;;;;;;;;;;24.40;50.50;;;;;;5094207;28;1016;-38
2021/12/16 14:37:21;;;;;;;;;;;24.30;50.40;;;;;;5094478;28;1272;-37
2021/12/16 14:42:47;;;;;;;;;;;24.50;50.70;;;;;;5091431;28;905;-37
2021/12/16 14:50:45;;;;;;;;;;;24.80;49.90;;;;;;5095084;28;650;-42
2021/12/16 14:53:26;;;;;;;;;;;24.80;49.70;;;;;;5095158;28;904;-43
2021/12/16 14:55:56;;;;;;;;;;;24.90;49.70;;;;;;5094597;28;903;-43
2021/12/16 14:58:24;;;;;;;;;;;25.00;49.50;;;;;;5096933;28;1010;-43
2021/12/16 15:00:57;;;;;;;;;;;25.00;48.90;;;;;;5098224;28;863;-44
2021/12/16 15:03:26;;;;;;;;;;;24.90;49.20;;;;;;5094762;28;1120;-42
2021/12/16 15:05:56;;;;;;;;;;;25.00;49.40;;;;;;5094744;28;968;-43
2021/12/16 15:08:28;;;;;;;;;;;24.90;49.40;;;;;;5094791;28;1926;-42
2021/12/16 15:10:56;;;;;;;;;;;24.90;49.20;;;;;;5095730;28;1028;-42
2021/12/16 15:13:29;;;;;;;;;;;25.00;48.90;;;;;;5094288;28;934;-42
2021/12/16 15:38:21;;;;;;;;;;;24.90;48.40;;;;;;5095784;28;1591;-43
2021/12/16 15:42:43;;;;;;;;;;;24.90;48.70;;;;;;5099268;28;935;-42
2021/12/16 15:43:53;;;;;;;;;;;24.90;48.80;;;;;;5099383;28;774;-42
2021/12/16 15:46:20;;;;;;;;;;;24.80;48.60;;;;;;5099647;28;1906;-42
2021/12/16 15:48:47;;;;;;;;;;;24.60;49.00;;;;;;5097781;28;932;-42
2021/12/16 15:51:14;;;;;;;;;;;24.60;49.40;;;;;;5098828;28;1098;-43
2021/12/16 15:53:43;;;;;;;;;;;24.60;49.70;;;;;;5098786;28;911;-42
2021/12/16 15:56:12;;;;;;;;;;;24.50;49.80;;;;;;5097568;28;1033;-42
2021/12/16 15:58:41;;;;;;;;;;;24.50;49.80;;;;;;5096991;28;927;-42
2021/12/16 16:01:08;;;;;;;;;;;24.30;49.70;;;;;;5096092;28;1017;-42
2021/12/16 16:03:37;;;;;;;;;;;24.30;50.20;;;;;;5095694;28;1007;-42
2021/12/16 16:06:05;;;;;;;;;;;24.20;50.40;;;;;;5095759;28;983;-41
2021/12/16 16:08:34;;;;;;;;;;;24.20;50.50;;;;;;5096762;28;1975;-42
2021/12/16 16:11:04;;;;;;;;;;;24.20;50.50;;;;;;5096084;28;1035;-43
2021/12/16 16:13:36;;;;;;;;;;;24.10;50.60;;;;;;5096669;28;1289;-42
2021/12/16 16:16:07;;;;;;;;;;;24.00;50.40;;;;;;5096027;28;975;-42
2021/12/16 16:18:37;;;;;;;;;;;24.00;50.60;;;;;;5096759;28;972;-41
2021/12/16 16:21:06;;;;;;;;;;;23.90;50.80;;;;;;5095714;28;927;-42
2021/12/16 16:23:35;;;;;;;;;;;23.80;51.20;;;;;;5096751;28;978;-42
2021/12/16 16:26:04;;;;;;;;;;;23.80;51.40;;;;;;5097794;28;1045;-43
2021/12/16 16:28:32;;;;;;;;;;;23.80;51.10;;;;;;5097227;28;1902;-42
2021/12/16 16:31:00;;;;;;;;;;;23.70;51.50;;;;;;5097115;28;1515;-42
2021/12/16 16:33:27;;;;;;;;;;;23.70;51.80;;;;;;5099137;28;1017;-42
2021/12/16 16:36:01;;;;;;;;;;;23.60;51.80;;;;;;5098562;28;1007;-42
2021/12/16 16:38:31;;;;;;;;;;;23.50;51.80;;;;;;5097889;28;983;-42
2021/12/16 16:40:59;;;;;;;;;;;23.50;52.00;;;;;;5097849;28;1772;-42
2021/12/16 16:43:28;;;;;;;;;;;23.50;52.20;;;;;;5097575;28;1440;-42
2021/12/16 16:45:59;;;;;;;;;;;23.40;52.30;;;;;;5097318;28;919;-42
2021/12/16 16:48:43;;;;;;;;;;;23.30;52.40;;;;;;5098060;28;2038;-42
2021/12/16 16:51:11;;;;;;;;;;;23.30;52.60;;;;;;5097649;28;877;-42
2021/12/16 16:53:45;;;;;;;;;;;23.30;52.30;;;;;;5097694;28;991;-42
2021/12/16 16:56:12;;;;;;;;;;;23.30;52.50;;;;;;5096762;28;991;-44
2021/12/16 16:58:42;;;;;;;;;;;23.30;52.50;;;;;;5097722;28;935;-44
2021/12/16 17:01:10;;;;;;;;;;;23.30;52.40;;;;;;5096665;28;1031;-42
2021/12/16 17:03:44;;;;;;;;;;;23.30;52.50;;;;;;5097291;28;1008;-42
2021/12/16 17:06:14;;;;;;;;;;;23.30;52.70;;;;;;5097261;28;927;-42
2021/12/16 17:08:41;;;;;;;;;;;23.20;52.80;;;;;;5097879;28;1918;-42
2021/12/16 17:11:12;;;;;;;;;;;23.20;52.80;;;;;;5098171;28;1166;-42
2021/12/16 17:13:45;;;;;;;;;;;23.10;52.60;;;;;;5096605;28;894;-42
2021/12/16 17:19:01;;;;;;;;;;;23.00;52.80;;;;;;5097035;28;673;-42
2021/12/16 17:21:29;;;;;;;;;;;23.00;53.00;;;;;;5097115;28;1055;-42
2021/12/16 17:23:57;;;;;;;;;;;23.10;53.30;;;;;;5097272;28;1849;-42
2021/12/16 17:26:27;;;;;;;;;;;23.10;53.00;;;;;;5097910;28;1851;-40
2021/12/16 17:28:54;;;;;;;;;;;23.30;53.60;;;;;;5097438;28;1991;-41
2021/12/16 17:31:34;;;;;;;;;;;23.50;52.70;;;;;;5096103;28;931;-41
2021/12/16 17:34:05;;;;;;;;;;;23.60;51.90;;;;;;5097458;28;987;-41
2021/12/16 17:36:32;;;;;;;;;;;23.90;52.30;;;;;;5097143;28;1050;-42
2021/12/16 17:39:06;;;;;;;;;;;24.10;51.50;;;;;;5097696;28;1053;-40
2021/12/16 17:41:35;;;;;;;;;;;24.20;52.30;;;;;;5096643;28;927;-42
2021/12/16 17:44:04;;;;;;;;;;;24.40;51.40;;;;;;5097522;28;921;-40
2021/12/16 17:46:31;;;;;;;;;;;24.60;50.50;;;;;;5098148;28;1001;-42
2021/12/16 17:49:00;;;;;;;;;;;24.70;51.50;;;;;;5096835;28;1983;-41
2021/12/16 17:51:29;;;;;;;;;;;24.80;49.90;;;;;;5097222;28;1017;-42